Andrelandia, Brazil
Current Conditions -  °F | °C
As of 8:00 AM on Tuesday 21 Oct 2014 (Local Time) from SBBQ Reporting Station
Light Rain Light Rain  
Wind Chill: 61°   Ceiling: 500
Heat Index: 61°   Visibility: 1.2mi
Dew Point: 59°   Wind: 6mph
Humidity: 94%   Direction: 130°SE
Pressure: 30.21"   Gusts: NA
Location:  21.74°S, 44.31°W
Report Text: SBBQ 211000Z 13005KT 2000 -RA BKN005 16/15 Q1023
Loading
Personal Weather Stations






























Interactive Weather Map
Tropical Storm Tracking
New forecast layout! Learn more

10-Day Weather Forecast

Advertisements
Track Severe Weather on mobile